createdAt,value
2022-12-25T00:01:51.905Z,3.93
2022-12-25T00:04:19.015Z,3.10
2022-12-25T00:06:46.093Z,4.20
2022-12-25T00:09:13.206Z,3.00
2022-12-25T00:11:40.347Z,5.10
2022-12-25T00:14:07.418Z,3.73
2022-12-25T00:16:34.698Z,5.07
2022-12-25T00:19:01.922Z,3.23
2022-12-25T00:21:29.200Z,2.50
2022-12-25T00:23:56.828Z,2.40
2022-12-25T00:26:24.149Z,2.40
2022-12-25T00:28:54.763Z,2.20
2022-12-25T00:31:22.484Z,2.30
2022-12-25T00:33:49.792Z,3.13
2022-12-25T00:36:17.223Z,4.90
2022-12-25T00:38:44.325Z,3.43
2022-12-25T00:41:12.234Z,2.63
2022-12-25T00:43:39.492Z,2.30
2022-12-25T00:46:07.009Z,2.40
2022-12-25T00:48:34.351Z,3.10
2022-12-25T00:51:01.997Z,3.27
2022-12-25T00:53:29.038Z,3.60
2022-12-25T00:55:59.603Z,3.67
2022-12-25T00:58:27.321Z,4.83
2022-12-25T01:00:54.513Z,3.73
2022-12-25T01:03:21.643Z,3.37
2022-12-25T01:06:15.187Z,3.90
2022-12-25T01:09:02.482Z,3.77
2022-12-25T01:11:29.601Z,5.93
2022-12-25T01:13:56.810Z,5.10
2022-12-25T01:16:23.987Z,4.73
2022-12-25T01:18:51.291Z,6.27
2022-12-25T01:21:20.099Z,5.80
2022-12-25T01:23:47.472Z,6.13
2022-12-25T01:26:15.013Z,6.40
2022-12-25T01:28:42.318Z,5.70
2022-12-25T01:31:10.157Z,4.80
2022-12-25T01:33:40.802Z,5.03
2022-12-25T01:36:20.933Z,8.07
2022-12-25T01:38:54.345Z,3.90
2022-12-25T01:41:22.726Z,3.93
2022-12-25T01:44:09.920Z,4.17
2022-12-25T01:46:37.219Z,5.87
2022-12-25T01:49:07.734Z,4.23
2022-12-25T01:51:37.448Z,3.57
2022-12-25T01:54:05.649Z,4.60
2022-12-25T01:56:32.873Z,3.73
2022-12-25T01:59:00.036Z,4.17
2022-12-25T02:01:27.273Z,3.87
2022-12-25T02:03:54.784Z,4.33
2022-12-25T02:06:21.831Z,4.90
2022-12-25T02:08:48.942Z,4.93
2022-12-25T02:11:35.983Z,4.20
2022-12-25T02:14:03.045Z,5.20
2022-12-25T02:16:30.830Z,4.60
2022-12-25T02:18:59.412Z,4.60
2022-12-25T02:21:35.542Z,5.47
2022-12-25T02:24:06.992Z,4.10
2022-12-25T02:26:51.718Z,4.10
2022-12-25T02:29:21.764Z,4.70
2022-12-25T02:31:55.078Z,5.00
2022-12-25T02:34:28.302Z,5.60
2022-12-25T02:37:00.233Z,5.43
2022-12-25T02:39:47.674Z,5.87
2022-12-25T02:42:17.130Z,4.70
2022-12-25T02:45:02.658Z,5.27
2022-12-25T02:47:48.365Z,4.90
2022-12-25T02:50:47.808Z,4.20
2022-12-25T02:53:33.487Z,5.00
2022-12-25T02:56:19.348Z,4.37
2022-12-25T02:59:05.010Z,4.63
2022-12-25T03:01:50.874Z,4.70
2022-12-25T03:04:38.038Z,7.70
2022-12-25T03:07:05.248Z,4.03
2022-12-25T03:09:53.271Z,4.60
2022-12-25T03:12:25.853Z,5.20
2022-12-25T03:15:11.480Z,4.77
2022-12-25T03:17:38.563Z,6.43
2022-12-25T03:20:24.747Z,4.40
2022-12-25T03:23:10.786Z,4.23
2022-12-25T03:25:56.604Z,4.10
2022-12-25T03:28:23.727Z,4.47
2022-12-25T03:31:12.550Z,4.00
2022-12-25T03:34:17.199Z,4.10
2022-12-25T03:37:19.841Z,3.70
2022-12-25T03:40:24.687Z,4.53
2022-12-25T03:43:13.593Z,3.40
2022-12-25T03:46:03.078Z,3.93
2022-12-25T03:48:49.365Z,4.17
2022-12-25T03:51:35.694Z,5.23
2022-12-25T03:54:21.892Z,4.80
2022-12-25T03:57:07.623Z,3.87
2022-12-25T03:59:53.583Z,3.93
2022-12-25T04:02:39.636Z,4.40
2022-12-25T04:05:25.912Z,4.13
2022-12-25T04:08:11.965Z,3.93
2022-12-25T04:10:57.944Z,3.53
2022-12-25T04:13:43.979Z,3.90
2022-12-25T04:16:29.801Z,3.23
2022-12-25T04:19:15.739Z,3.20
2022-12-25T04:22:01.607Z,3.83
2022-12-25T04:24:47.510Z,3.07
2022-12-25T04:27:33.552Z,3.07
2022-12-25T04:30:19.635Z,3.90
2022-12-25T04:33:05.538Z,3.53
2022-12-25T04:35:51.457Z,3.60
2022-12-25T04:38:20.857Z,3.67
2022-12-25T04:40:48.058Z,3.20
2022-12-25T04:43:15.127Z,3.40
2022-12-25T04:45:42.277Z,3.23
2022-12-25T04:48:09.354Z,3.27
2022-12-25T04:50:36.490Z,3.30
2022-12-25T04:53:03.558Z,3.57
2022-12-25T04:55:30.644Z,3.23
2022-12-25T04:57:57.719Z,3.70
2022-12-25T05:00:24.843Z,3.13
2022-12-25T05:02:52.101Z,3.60
2022-12-25T05:05:19.298Z,3.20
2022-12-25T05:07:46.366Z,3.30
2022-12-25T05:10:13.504Z,2.80
2022-12-25T05:12:40.599Z,2.77
2022-12-25T05:15:07.942Z,3.47
2022-12-25T05:17:35.129Z,2.73
2022-12-25T05:20:02.254Z,3.40
2022-12-25T05:22:29.421Z,3.17
2022-12-25T05:24:56.520Z,5.20
2022-12-25T05:27:23.634Z,3.10
2022-12-25T05:29:50.749Z,2.87
2022-12-25T05:32:17.980Z,3.00
2022-12-25T05:34:45.060Z,4.93
2022-12-25T05:37:12.237Z,3.00
2022-12-25T05:39:39.411Z,3.90
2022-12-25T05:42:06.583Z,3.13
2022-12-25T05:44:33.727Z,3.40
2022-12-25T05:47:00.942Z,3.40
2022-12-25T05:49:28.170Z,4.47
2022-12-25T05:51:55.319Z,2.57
2022-12-25T05:54:22.402Z,2.90
2022-12-25T05:56:49.516Z,2.83
2022-12-25T05:59:16.685Z,3.50
2022-12-25T06:01:43.953Z,3.10
2022-12-25T06:04:12.999Z,3.30
2022-12-25T06:06:40.513Z,5.40
2022-12-25T06:09:07.725Z,4.17
2022-12-25T06:11:34.876Z,3.50
2022-12-25T06:14:02.051Z,3.97
2022-12-25T06:16:35.585Z,3.60
2022-12-25T06:19:05.000Z,4.23
2022-12-25T06:21:32.130Z,3.63
2022-12-25T06:24:02.474Z,3.53
2022-12-25T06:26:29.704Z,3.50
2022-12-25T06:28:56.843Z,2.60
2022-12-25T06:31:24.226Z,3.40
2022-12-25T06:33:51.447Z,4.00
2022-12-25T06:36:22.333Z,3.53
2022-12-25T06:38:49.446Z,3.73
2022-12-25T06:41:17.568Z,3.57
2022-12-25T06:43:44.707Z,4.37
2022-12-25T06:46:12.549Z,3.27
2022-12-25T06:48:40.151Z,4.00
2022-12-25T06:51:07.363Z,4.00
2022-12-25T06:53:40.338Z,3.33
2022-12-25T06:56:08.693Z,4.10
2022-12-25T06:58:35.784Z,4.43
2022-12-25T07:01:07.295Z,3.43
2022-12-25T07:03:34.478Z,4.13
2022-12-25T07:06:01.544Z,3.93
2022-12-25T07:08:28.645Z,3.60
2022-12-25T07:10:55.806Z,4.23
2022-12-25T07:13:22.923Z,3.23
2022-12-25T07:15:55.889Z,3.60
2022-12-25T07:18:23.024Z,5.27
2022-12-25T07:20:50.112Z,4.10
2022-12-25T07:23:17.215Z,3.90
2022-12-25T07:25:44.369Z,3.10
2022-12-25T07:28:11.460Z,3.70
2022-12-25T07:30:38.617Z,3.60
2022-12-25T07:33:05.738Z,4.63
2022-12-25T07:35:32.857Z,4.00
2022-12-25T07:38:00.001Z,3.67
2022-12-25T07:40:27.080Z,3.37
2022-12-25T07:42:54.167Z,3.37
2022-12-25T07:45:21.311Z,3.63
2022-12-25T07:47:48.583Z,3.00
2022-12-25T07:50:15.787Z,3.43
2022-12-25T07:52:43.956Z,3.57
2022-12-25T07:55:11.232Z,3.67
2022-12-25T07:57:38.339Z,5.23
2022-12-25T08:00:05.989Z,3.77
2022-12-25T08:02:33.660Z,3.80
2022-12-25T08:05:01.079Z,3.40
2022-12-25T08:07:28.507Z,3.90
2022-12-25T08:09:55.660Z,3.30
2022-12-25T08:12:22.727Z,3.90
2022-12-25T08:14:49.812Z,3.87
2022-12-25T08:17:16.956Z,4.47
2022-12-25T08:19:44.220Z,3.40
2022-12-25T08:22:11.300Z,3.70
2022-12-25T08:24:38.433Z,3.90
2022-12-25T08:27:05.541Z,3.97
2022-12-25T08:29:33.518Z,3.97
2022-12-25T08:32:00.625Z,3.93
2022-12-25T08:34:27.753Z,4.50
2022-12-25T08:36:54.942Z,4.00
2022-12-25T08:39:22.059Z,3.20
2022-12-25T08:41:49.205Z,6.67
2022-12-25T08:44:16.338Z,3.90
2022-12-25T08:46:43.584Z,3.60
2022-12-25T08:49:10.799Z,3.60
2022-12-25T08:51:37.979Z,4.37
2022-12-25T08:54:05.083Z,4.80
2022-12-25T08:56:32.664Z,3.30
2022-12-25T08:58:59.815Z,3.80
2022-12-25T09:01:27.017Z,3.97
2022-12-25T09:03:54.316Z,3.53
2022-12-25T09:06:21.404Z,3.50
2022-12-25T09:08:49.830Z,3.37
2022-12-25T09:11:17.327Z,3.83
2022-12-25T09:13:44.450Z,3.40
2022-12-25T09:16:12.690Z,2.90
2022-12-25T09:18:40.010Z,3.17
2022-12-25T09:21:08.211Z,3.60
2022-12-25T09:23:37.436Z,2.97
2022-12-25T09:26:05.081Z,3.57
2022-12-25T09:28:32.287Z,2.73
2022-12-25T09:30:59.573Z,3.73
2022-12-25T09:33:26.805Z,3.20
2022-12-25T09:35:54.907Z,3.53
2022-12-25T09:38:22.048Z,3.70
2022-12-25T09:40:49.327Z,4.00
2022-12-25T09:43:17.307Z,3.20
2022-12-25T09:45:44.455Z,3.80
2022-12-25T09:48:12.459Z,3.30
2022-12-25T09:50:50.148Z,2.67
2022-12-25T09:53:22.118Z,2.90
2022-12-25T09:55:50.380Z,2.70
2022-12-25T09:58:17.498Z,3.70
2022-12-25T10:00:53.831Z,2.97
2022-12-25T10:03:27.467Z,3.17
2022-12-25T10:06:11.447Z,3.57
2022-12-25T10:08:57.239Z,2.80
2022-12-25T10:11:43.434Z,2.80
2022-12-25T10:14:14.597Z,2.40
2022-12-25T10:16:44.765Z,4.17
2022-12-25T10:19:24.722Z,2.70
2022-12-25T10:21:53.010Z,3.30
2022-12-25T10:24:23.136Z,2.73
2022-12-25T10:26:50.871Z,2.17
2022-12-25T10:29:21.497Z,2.20
2022-12-25T10:31:53.175Z,2.73
2022-12-25T10:34:20.444Z,2.00
2022-12-25T10:36:47.682Z,1.73
2022-12-25T10:39:22.843Z,1.97
2022-12-25T10:41:50.095Z,2.50
2022-12-25T10:44:21.152Z,1.80
2022-12-25T10:46:49.146Z,1.57
2022-12-25T10:49:16.634Z,1.80
2022-12-25T10:51:43.904Z,2.00
2022-12-25T10:54:29.952Z,2.30
2022-12-25T10:57:01.451Z,1.57
2022-12-25T10:59:29.649Z,1.43
2022-12-25T11:01:56.963Z,1.80
2022-12-25T11:04:28.676Z,2.07
2022-12-25T11:06:59.746Z,2.00
2022-12-25T11:09:26.839Z,2.20
2022-12-25T11:11:54.023Z,1.40
2022-12-25T11:14:21.172Z,1.73
2022-12-25T11:16:50.490Z,1.87
2022-12-25T11:19:28.165Z,1.83
2022-12-25T11:21:56.293Z,2.37
2022-12-25T11:24:25.571Z,2.17
2022-12-25T11:26:53.481Z,1.70
2022-12-25T11:29:23.613Z,2.40
2022-12-25T11:31:50.797Z,1.93
2022-12-25T11:34:34.609Z,1.50
2022-12-25T11:37:02.153Z,3.70
2022-12-25T11:39:30.345Z,2.20
2022-12-25T11:42:00.118Z,2.20
2022-12-25T11:44:36.280Z,1.80
2022-12-25T11:47:08.579Z,1.83
2022-12-25T11:49:36.977Z,1.80
2022-12-25T11:52:06.591Z,1.87
2022-12-25T11:54:34.594Z,1.80
2022-12-25T11:57:01.763Z,1.50
2022-12-25T11:59:31.477Z,1.63
2022-12-25T12:02:11.049Z,2.40
2022-12-25T12:04:42.961Z,1.80
2022-12-25T12:07:25.147Z,1.93
2022-12-25T12:09:55.300Z,2.50
2022-12-25T12:12:31.588Z,1.40
2022-12-25T12:15:04.460Z,1.70
2022-12-25T12:17:31.597Z,1.67
2022-12-25T12:19:59.007Z,1.67
2022-12-25T12:22:26.604Z,1.77
2022-12-25T12:24:58.355Z,1.70
2022-12-25T12:27:38.227Z,1.70
2022-12-25T12:30:05.548Z,2.73
2022-12-25T12:32:35.825Z,1.60
2022-12-25T12:35:19.156Z,1.93
2022-12-25T12:38:06.567Z,1.40
2022-12-25T12:40:33.769Z,1.30
2022-12-25T12:43:01.094Z,1.67
2022-12-25T12:45:32.161Z,1.30
2022-12-25T12:47:59.460Z,2.17
2022-12-25T12:50:27.778Z,1.10
2022-12-25T12:52:54.863Z,1.20
2022-12-25T12:55:29.033Z,1.90
2022-12-25T12:58:00.145Z,2.50
2022-12-25T13:00:27.555Z,1.23
2022-12-25T13:03:33.460Z,1.10
2022-12-25T13:06:09.718Z,1.00
2022-12-25T13:08:39.598Z,1.60
2022-12-25T13:11:25.466Z,1.07
2022-12-25T13:13:53.406Z,1.10
2022-12-25T13:16:26.653Z,1.50
2022-12-25T13:18:54.321Z,0.80
2022-12-25T13:21:22.983Z,2.10
2022-12-25T13:23:55.791Z,1.00
2022-12-25T13:26:23.867Z,1.00
2022-12-25T13:28:50.945Z,1.63
2022-12-25T13:31:18.986Z,0.83
2022-12-25T13:33:46.877Z,0.63
2022-12-25T13:36:14.282Z,0.67
2022-12-25T13:38:45.300Z,2.50
2022-12-25T13:41:30.933Z,0.70
2022-12-25T13:43:58.458Z,1.70
2022-12-25T13:46:26.331Z,0.60
2022-12-25T13:48:59.172Z,0.70
2022-12-25T13:51:26.412Z,0.87
2022-12-25T13:54:03.691Z,0.70
2022-12-25T13:56:31.328Z,0.90
2022-12-25T13:58:58.435Z,0.53
2022-12-25T14:01:25.801Z,0.80
2022-12-25T14:03:53.055Z,0.70
2022-12-25T14:06:27.134Z,0.70
2022-12-25T14:08:55.274Z,0.80
2022-12-25T14:11:23.225Z,0.73
2022-12-25T14:13:51.948Z,0.70
2022-12-25T14:16:19.178Z,1.40
2022-12-25T14:18:56.358Z,0.93
2022-12-25T14:21:26.581Z,1.07
2022-12-25T14:23:53.721Z,1.00
2022-12-25T14:26:30.487Z,1.27
2022-12-25T14:29:15.607Z,1.07
2022-12-25T14:31:44.523Z,0.83
2022-12-25T14:34:12.750Z,0.83
2022-12-25T14:36:39.913Z,1.17
2022-12-25T14:39:07.447Z,1.10
2022-12-25T14:41:38.369Z,1.07
2022-12-25T14:44:26.055Z,1.00
2022-12-25T14:47:03.279Z,1.20
2022-12-25T14:49:31.518Z,1.13
2022-12-25T14:51:58.641Z,1.40
2022-12-25T14:54:25.707Z,1.40
2022-12-25T14:56:53.919Z,1.57
2022-12-25T14:59:21.671Z,1.40
2022-12-25T15:01:52.979Z,2.63
2022-12-25T15:04:20.601Z,1.00
2022-12-25T15:06:54.998Z,1.03
2022-12-25T15:09:22.217Z,1.17
2022-12-25T15:11:49.907Z,1.50
2022-12-25T15:14:17.072Z,1.30
2022-12-25T15:16:48.052Z,2.60
2022-12-25T15:19:25.214Z,2.10
2022-12-25T15:21:53.664Z,1.50
2022-12-25T15:24:20.857Z,1.70
2022-12-25T15:26:48.083Z,1.80
2022-12-25T15:29:15.139Z,1.30
2022-12-25T15:31:42.371Z,1.37
2022-12-25T15:34:35.630Z,2.43
2022-12-25T15:37:02.768Z,2.73
2022-12-25T15:39:29.933Z,2.03
2022-12-25T15:42:12.748Z,3.10
2022-12-25T15:44:40.401Z,1.77
2022-12-25T15:47:07.837Z,2.00
2022-12-25T15:49:34.942Z,1.83
2022-12-25T15:52:03.663Z,1.97
2022-12-25T15:54:31.339Z,2.00
2022-12-25T15:56:59.567Z,1.90
2022-12-25T15:59:26.674Z,2.23
2022-12-25T16:01:57.507Z,3.23
2022-12-25T16:04:24.911Z,2.80
2022-12-25T16:06:52.098Z,3.43
2022-12-25T16:09:22.601Z,4.23
2022-12-25T16:11:49.800Z,4.33
2022-12-25T16:14:16.990Z,4.60
2022-12-25T16:16:44.124Z,4.83
2022-12-25T16:19:11.259Z,5.30
2022-12-25T16:21:45.101Z,4.63
2022-12-25T16:24:12.307Z,4.50
2022-12-25T16:26:39.677Z,4.20
2022-12-25T16:29:07.732Z,6.40
2022-12-25T16:31:35.431Z,5.90
2022-12-25T16:34:02.687Z,5.03
2022-12-25T16:36:29.870Z,6.70
2022-12-25T16:38:56.996Z,6.27
2022-12-25T16:41:24.136Z,5.13
2022-12-25T16:43:51.317Z,5.10
2022-12-25T16:46:19.359Z,5.87
2022-12-25T16:48:46.584Z,6.83
2022-12-25T16:51:14.583Z,5.37
2022-12-25T16:53:41.744Z,4.33
2022-12-25T16:56:09.929Z,4.20
2022-12-25T16:58:37.796Z,5.43
2022-12-25T17:01:08.062Z,4.33
2022-12-25T17:03:35.358Z,5.00
2022-12-25T17:06:02.578Z,8.20
2022-12-25T17:08:29.749Z,13.43
2022-12-25T17:10:56.844Z,13.47
2022-12-25T17:13:23.928Z,16.07
2022-12-25T17:15:51.155Z,22.23
2022-12-25T17:18:21.820Z,13.97
2022-12-25T17:20:54.904Z,14.23
2022-12-25T17:23:23.119Z,15.17
2022-12-25T17:25:50.224Z,13.63
2022-12-25T17:28:17.309Z,15.47
2022-12-25T17:30:44.391Z,13.37
2022-12-25T17:33:11.472Z,13.03
2022-12-25T17:35:38.536Z,19.03
2022-12-25T17:38:05.755Z,18.70
2022-12-25T17:40:32.891Z,29.27
2022-12-25T17:43:00.007Z,22.33
2022-12-25T17:45:27.136Z,15.33
2022-12-25T17:47:57.426Z,13.83
2022-12-25T17:50:25.711Z,14.23
2022-12-25T17:52:53.022Z,14.23
2022-12-25T17:55:20.110Z,14.27
2022-12-25T17:57:47.379Z,11.10
2022-12-25T18:00:14.690Z,13.60
2022-12-25T18:02:44.511Z,10.27
2022-12-25T18:05:11.736Z,8.00
2022-12-25T18:07:38.832Z,8.77
2022-12-25T18:10:06.155Z,8.43
2022-12-25T18:12:33.346Z,7.57
2022-12-25T18:15:00.477Z,7.10
2022-12-25T18:17:28.669Z,9.40
2022-12-25T18:19:56.080Z,10.70
2022-12-25T18:22:23.355Z,10.50
2022-12-25T18:24:50.447Z,10.77
2022-12-25T18:27:17.552Z,11.63
2022-12-25T18:29:44.750Z,11.60
2022-12-25T18:32:11.895Z,9.33
2022-12-25T18:34:39.001Z,8.17
2022-12-25T18:37:06.167Z,9.17
2022-12-25T18:39:33.527Z,8.20
2022-12-25T18:42:19.652Z,8.83
2022-12-25T18:44:46.980Z,8.57
2022-12-25T18:47:14.206Z,8.57
2022-12-25T18:49:41.270Z,10.50
2022-12-25T18:52:47.715Z,8.70
2022-12-25T18:54:55.641Z,10.13
2022-12-25T18:57:22.936Z,9.90
2022-12-25T18:59:50.031Z,10.73
2022-12-25T19:02:17.213Z,10.13
2022-12-25T19:04:44.554Z,9.43
2022-12-25T19:07:11.792Z,9.10
2022-12-25T19:09:39.016Z,9.10
2022-12-25T19:12:06.206Z,8.30
2022-12-25T19:14:47.937Z,7.73
2022-12-25T19:17:15.469Z,9.23
2022-12-25T19:19:42.676Z,11.97
2022-12-25T19:22:09.832Z,12.43
2022-12-25T19:24:37.149Z,9.33
2022-12-25T19:27:04.384Z,17.13
2022-12-25T19:29:31.535Z,22.43
2022-12-25T19:31:58.732Z,16.93
2022-12-25T19:34:25.911Z,16.10
2022-12-25T19:36:53.051Z,11.63
2022-12-25T19:39:20.197Z,12.03
2022-12-25T19:41:47.342Z,15.30
2022-12-25T19:44:14.492Z,15.47
2022-12-25T19:46:41.842Z,12.70
2022-12-25T19:49:10.921Z,9.60
2022-12-25T19:51:38.602Z,10.47
2022-12-25T19:54:05.969Z,11.97
2022-12-25T19:56:33.112Z,12.50
2022-12-25T19:59:00.231Z,11.70
2022-12-25T20:01:28.208Z,13.57
2022-12-25T20:03:55.454Z,10.73
2022-12-25T20:06:24.913Z,13.90
2022-12-25T20:08:55.908Z,11.57
2022-12-25T20:11:23.536Z,10.70
2022-12-25T20:13:50.764Z,7.43
2022-12-25T20:16:18.058Z,8.53
2022-12-25T20:18:45.519Z,8.70
2022-12-25T20:21:16.235Z,8.90
2022-12-25T20:23:43.761Z,8.03
2022-12-25T20:26:10.923Z,7.80
2022-12-25T20:28:38.323Z,7.70
2022-12-25T20:31:08.989Z,6.80
2022-12-25T20:33:36.413Z,5.70
2022-12-25T20:36:03.901Z,5.23
2022-12-25T20:38:31.157Z,6.40
2022-12-25T20:41:26.275Z,6.63
2022-12-25T20:43:49.689Z,6.07
2022-12-25T20:46:16.927Z,7.83
2022-12-25T20:48:44.367Z,8.17
2022-12-25T20:51:11.517Z,7.93
2022-12-25T20:53:38.648Z,6.80
2022-12-25T20:56:05.781Z,6.50
2022-12-25T20:58:32.900Z,13.70
2022-12-25T21:01:00.187Z,6.83
2022-12-25T21:03:27.423Z,7.57
2022-12-25T21:05:55.061Z,8.33
2022-12-25T21:08:24.101Z,5.67
2022-12-25T21:10:52.468Z,5.50
2022-12-25T21:13:25.796Z,7.17
2022-12-25T21:15:53.000Z,5.80
2022-12-25T21:18:22.091Z,4.90
2022-12-25T21:20:50.320Z,5.10
2022-12-25T21:23:17.741Z,6.10
2022-12-25T21:25:45.229Z,5.37
2022-12-25T21:28:12.506Z,4.53
2022-12-25T21:30:39.624Z,4.77
2022-12-25T21:33:25.526Z,4.53
2022-12-25T21:35:52.621Z,4.43
2022-12-25T21:38:19.910Z,5.70
2022-12-25T21:40:47.108Z,4.10
2022-12-25T21:43:14.590Z,4.97
2022-12-25T21:45:41.821Z,5.60
2022-12-25T21:48:09.049Z,4.47
2022-12-25T21:50:55.220Z,4.03
2022-12-25T21:53:22.311Z,4.90
2022-12-25T21:56:05.754Z,4.47
2022-12-25T21:58:32.998Z,4.57
2022-12-25T22:01:03.916Z,5.00
2022-12-25T22:03:31.189Z,4.80
2022-12-25T22:06:21.380Z,3.60
2022-12-25T22:08:48.912Z,3.50
2022-12-25T22:11:34.909Z,3.90
2022-12-25T22:14:20.827Z,3.93
2022-12-25T22:17:26.694Z,5.33
2022-12-25T22:19:53.899Z,4.70
2022-12-25T22:22:22.083Z,4.93
2022-12-25T22:24:49.590Z,5.80
2022-12-25T22:27:16.986Z,4.50
2022-12-25T22:29:44.118Z,4.63
2022-12-25T22:32:11.471Z,5.43
2022-12-25T22:34:38.790Z,5.13
2022-12-25T22:37:06.301Z,7.47
2022-12-25T22:39:33.730Z,5.40
2022-12-25T22:42:01.062Z,5.77
2022-12-25T22:44:28.965Z,6.13
2022-12-25T22:46:56.172Z,7.60
2022-12-25T22:49:23.347Z,7.23
2022-12-25T22:51:50.569Z,6.47
2022-12-25T22:54:17.835Z,5.63
2022-12-25T22:56:45.283Z,5.70
2022-12-25T22:59:12.610Z,4.53
2022-12-25T23:01:39.900Z,5.23
2022-12-25T23:04:08.019Z,3.50
2022-12-25T23:06:35.223Z,4.43
2022-12-25T23:09:02.449Z,4.10
2022-12-25T23:11:29.510Z,4.47
2022-12-25T23:14:15.607Z,4.80
2022-12-25T23:16:42.740Z,5.07
2022-12-25T23:19:29.901Z,9.67
2022-12-25T23:22:15.737Z,13.63
2022-12-25T23:25:01.493Z,9.00
2022-12-25T23:27:28.584Z,8.47
2022-12-25T23:29:55.717Z,6.87
2022-12-25T23:32:25.215Z,6.07
2022-12-25T23:34:52.658Z,8.00
2022-12-25T23:37:19.999Z,5.43
2022-12-25T23:39:47.396Z,6.27
2022-12-25T23:42:14.596Z,10.87
2022-12-25T23:44:41.775Z,5.73
2022-12-25T23:47:09.010Z,5.20
2022-12-25T23:49:36.131Z,4.93
2022-12-25T23:52:03.276Z,4.30
2022-12-25T23:54:30.748Z,5.30
2022-12-25T23:56:58.106Z,5.07
2022-12-25T23:59:28.875Z,3.93
